sensor_id;sensor_type;location;lat;lon;timestamp;pressure;altitude;pressure_sealevel;temperature;humidity
20622;BME280;10470;42.670;23.354;2023-05-12T00:00:25;95106.38;;;10.23;100.00
20622;BME280;10470;42.670;23.354;2023-05-12T00:03:11;95113.16;;;10.32;100.00
20622;BME280;10470;42.670;23.354;2023-05-12T00:05:56;95098.44;;;10.16;100.00
20622;BME280;10470;42.670;23.354;2023-05-12T00:08:44;95099.84;;;10.21;100.00
20622;BME280;10470;42.670;23.354;2023-05-12T00:11:29;95104.09;;;10.22;100.00
20622;BME280;10470;42.670;23.354;2023-05-12T00:14:15;95114.97;;;10.22;100.00
20622;BME280;10470;42.670;23.354;2023-05-12T00:16:54;95090.81;;;9.98;100.00
20622;BME280;10470;42.670;23.354;2023-05-12T00:19:39;95108.16;;;10.04;100.00
20622;BME280;10470;42.670;23.354;2023-05-12T00:22:28;95107.25;;;10.20;100.00
20622;BME280;10470;42.670;23.354;2023-05-12T00:25:08;95105.75;;;10.06;100.00
20622;BME280;10470;42.670;23.354;2023-05-12T00:27:53;95097.78;;;9.99;100.00
20622;BME280;10470;42.670;23.354;2023-05-12T00:30:39;95105.50;;;10.01;100.00
20622;BME280;10470;42.670;23.354;2023-05-12T00:33:24;95104.97;;;10.06;100.00
20622;BME280;10470;42.670;23.354;2023-05-12T00:36:09;95102.56;;;9.95;100.00
20622;BME280;10470;42.670;23.354;2023-05-12T00:38:55;95109.31;;;9.78;100.00
20622;BME280;10470;42.670;23.354;2023-05-12T00:41:40;95102.34;;;9.77;100.00
20622;BME280;10470;42.670;23.354;2023-05-12T00:44:26;95101.13;;;9.78;100.00
20622;BME280;10470;42.670;23.354;2023-05-12T00:47:12;95107.00;;;9.63;100.00
20622;BME280;10470;42.670;23.354;2023-05-12T00:49:58;95104.75;;;9.88;100.00
20622;BME280;10470;42.670;23.354;2023-05-12T00:52:45;95106.81;;;9.83;100.00
20622;BME280;10470;42.670;23.354;2023-05-12T00:55:26;95116.16;;;9.70;100.00
20622;BME280;10470;42.670;23.354;2023-05-12T00:58:13;95116.38;;;9.75;100.00
20622;BME280;10470;42.670;23.354;2023-05-12T01:00:58;95119.63;;;9.57;100.00
20622;BME280;10470;42.670;23.354;2023-05-12T01:03:44;95118.69;;;9.35;100.00
20622;BME280;10470;42.670;23.354;2023-05-12T01:06:44;95124.81;;;9.52;100.00
20622;BME280;10470;42.670;23.354;2023-05-12T01:09:32;95109.97;;;9.27;100.00
20622;BME280;10470;42.670;23.354;2023-05-12T01:12:18;95109.59;;;9.12;100.00
20622;BME280;10470;42.670;23.354;2023-05-12T01:15:05;95117.22;;;9.17;100.00
20622;BME280;10470;42.670;23.354;2023-05-12T01:17:33;95114.09;;;9.19;100.00
20622;BME280;10470;42.670;23.354;2023-05-12T01:20:21;95113.84;;;9.13;100.00
20622;BME280;10470;42.670;23.354;2023-05-12T01:23:09;95115.25;;;9.18;100.00
20622;BME280;10470;42.670;23.354;2023-05-12T01:26:03;95112.78;;;8.94;100.00
20622;BME280;10470;42.670;23.354;2023-05-12T01:28:50;95095.00;;;8.77;100.00
20622;BME280;10470;42.670;23.354;2023-05-12T01:31:36;95119.72;;;9.12;100.00
20622;BME280;10470;42.670;23.354;2023-05-12T01:34:22;95110.16;;;8.91;100.00
20622;BME280;10470;42.670;23.354;2023-05-12T01:37:08;95102.53;;;9.15;100.00
20622;BME280;10470;42.670;23.354;2023-05-12T01:39:54;95105.38;;;9.11;100.00
20622;BME280;10470;42.670;23.354;2023-05-12T01:42:40;95105.50;;;8.91;100.00
20622;BME280;10470;42.670;23.354;2023-05-12T01:45:26;95096.34;;;8.85;100.00
20622;BME280;10470;42.670;23.354;2023-05-12T01:48:12;95112.41;;;8.80;100.00
20622;BME280;10470;42.670;23.354;2023-05-12T01:50:39;95108.59;;;8.77;100.00
20622;BME280;10470;42.670;23.354;2023-05-12T01:53:26;95106.63;;;8.78;100.00
20622;BME280;10470;42.670;23.354;2023-05-12T01:56:11;95106.97;;;8.63;100.00
20622;BME280;10470;42.670;23.354;2023-05-12T01:58:57;95099.19;;;8.49;100.00
20622;BME280;10470;42.670;23.354;2023-05-12T02:01:42;95090.50;;;8.70;100.00
20622;BME280;10470;42.670;23.354;2023-05-12T02:04:28;95080.34;;;8.42;100.00
20622;BME280;10470;42.670;23.354;2023-05-12T02:07:13;95092.75;;;8.59;100.00
20622;BME280;10470;42.670;23.354;2023-05-12T02:09:59;95097.16;;;8.53;100.00
20622;BME280;10470;42.670;23.354;2023-05-12T02:12:45;95091.97;;;8.59;100.00
20622;BME280;10470;42.670;23.354;2023-05-12T02:15:30;95087.91;;;8.67;100.00
20622;BME280;10470;42.670;23.354;2023-05-12T02:18:16;95082.97;;;8.62;100.00
20622;BME280;10470;42.670;23.354;2023-05-12T02:21:01;95075.25;;;8.60;100.00
20622;BME280;10470;42.670;23.354;2023-05-12T02:23:42;95086.63;;;8.55;100.00
20622;BME280;10470;42.670;23.354;2023-05-12T02:26:27;95077.81;;;8.51;100.00
20622;BME280;10470;42.670;23.354;2023-05-12T02:29:13;95081.38;;;8.48;100.00
20622;BME280;10470;42.670;23.354;2023-05-12T02:31:58;95071.69;;;8.47;100.00
20622;BME280;10470;42.670;23.354;2023-05-12T02:34:44;95077.38;;;8.52;100.00
20622;BME280;10470;42.670;23.354;2023-05-12T02:37:30;95077.81;;;8.51;100.00
20622;BME280;10470;42.670;23.354;2023-05-12T02:40:15;95067.53;;;8.42;100.00
20622;BME280;10470;42.670;23.354;2023-05-12T02:43:01;95074.00;;;8.48;100.00
20622;BME280;10470;42.670;23.354;2023-05-12T02:45:46;95070.69;;;8.41;100.00
20622;BME280;10470;42.670;23.354;2023-05-12T02:48:32;95073.22;;;8.48;100.00
20622;BME280;10470;42.670;23.354;2023-05-12T02:51:17;95065.59;;;8.43;100.00
20622;BME280;10470;42.670;23.354;2023-05-12T02:54:03;95072.00;;;8.32;100.00
20622;BME280;10470;42.670;23.354;2023-05-12T02:56:48;95069.56;;;8.38;100.00
20622;BME280;10470;42.670;23.354;2023-05-12T02:59:34;95058.38;;;8.36;100.00
20622;BME280;10470;42.670;23.354;2023-05-12T03:02:08;95055.41;;;8.30;100.00
20622;BME280;10470;42.670;23.354;2023-05-12T03:04:54;95067.78;;;8.31;100.00
20622;BME280;10470;42.670;23.354;2023-05-12T03:07:39;95068.72;;;8.25;100.00
20622;BME280;10470;42.670;23.354;2023-05-12T03:10:25;95063.22;;;8.28;100.00
20622;BME280;10470;42.670;23.354;2023-05-12T03:13:10;95075.84;;;8.19;100.00
20622;BME280;10470;42.670;23.354;2023-05-12T03:15:56;95062.09;;;8.26;100.00
20622;BME280;10470;42.670;23.354;2023-05-12T03:18:45;95062.72;;;8.17;100.00
20622;BME280;10470;42.670;23.354;2023-05-12T03:21:30;95060.16;;;8.10;100.00
20622;BME280;10470;42.670;23.354;2023-05-12T03:24:16;95062.97;;;8.23;100.00
20622;BME280;10470;42.670;23.354;2023-05-12T03:27:01;95062.78;;;7.97;100.00
20622;BME280;10470;42.670;23.354;2023-05-12T03:29:47;95068.56;;;7.99;100.00
20622;BME280;10470;42.670;23.354;2023-05-12T03:32:32;95073.97;;;8.16;100.00
20622;BME280;10470;42.670;23.354;2023-05-12T03:35:17;95073.53;;;8.01;100.00
20622;BME280;10470;42.670;23.354;2023-05-12T03:38:03;95065.41;;;8.01;100.00
20622;BME280;10470;42.670;23.354;2023-05-12T03:40:48;95068.88;;;8.01;100.00
20622;BME280;10470;42.670;23.354;2023-05-12T03:43:36;95085.25;;;8.14;100.00
20622;BME280;10470;42.670;23.354;2023-05-12T03:46:22;95080.44;;;8.05;100.00
20622;BME280;10470;42.670;23.354;2023-05-12T03:49:08;95071.19;;;8.03;100.00
20622;BME280;10470;42.670;23.354;2023-05-12T03:51:54;95061.69;;;7.95;100.00
20622;BME280;10470;42.670;23.354;2023-05-12T03:54:39;95070.50;;;7.99;100.00
20622;BME280;10470;42.670;23.354;2023-05-12T03:57:25;95064.63;;;8.17;100.00
20622;BME280;10470;42.670;23.354;2023-05-12T03:59:53;95085.09;;;8.21;100.00
20622;BME280;10470;42.670;23.354;2023-05-12T04:02:39;95080.25;;;8.29;100.00
20622;BME280;10470;42.670;23.354;2023-05-12T04:05:25;95085.28;;;8.30;100.00
20622;BME280;10470;42.670;23.354;2023-05-12T04:08:10;95085.34;;;8.27;100.00
20622;BME280;10470;42.670;23.354;2023-05-12T04:10:57;95079.06;;;8.14;100.00
20622;BME280;10470;42.670;23.354;2023-05-12T04:13:43;95098.63;;;8.41;100.00
20622;BME280;10470;42.670;23.354;2023-05-12T04:16:28;95074.06;;;8.12;100.00
20622;BME280;10470;42.670;23.354;2023-05-12T04:19:14;95089.34;;;8.22;100.00
20622;BME280;10470;42.670;23.354;2023-05-12T04:21:59;95091.06;;;8.49;100.00
20622;BME280;10470;42.670;23.354;2023-05-12T04:24:45;95091.22;;;8.42;100.00
20622;BME280;10470;42.670;23.354;2023-05-12T04:27:30;95095.94;;;8.38;100.00
20622;BME280;10470;42.670;23.354;2023-05-12T04:30:03;95090.63;;;8.50;100.00
20622;BME280;10470;42.670;23.354;2023-05-12T04:32:48;95093.53;;;8.43;100.00
20622;BME280;10470;42.670;23.354;2023-05-12T04:35:34;95090.19;;;8.52;100.00
20622;BME280;10470;42.670;23.354;2023-05-12T04:38:20;95097.84;;;8.57;100.00
20622;BME280;10470;42.670;23.354;2023-05-12T04:41:05;95097.50;;;8.55;100.00
20622;BME280;10470;42.670;23.354;2023-05-12T04:43:51;95098.66;;;8.70;100.00
20622;BME280;10470;42.670;23.354;2023-05-12T04:46:36;95081.63;;;8.53;100.00
20622;BME280;10470;42.670;23.354;2023-05-12T04:49:21;95104.78;;;8.74;100.00
20622;BME280;10470;42.670;23.354;2023-05-12T04:52:07;95097.63;;;8.81;100.00
20622;BME280;10470;42.670;23.354;2023-05-12T04:54:52;95100.84;;;8.75;100.00
20622;BME280;10470;42.670;23.354;2023-05-12T04:57:38;95105.19;;;8.73;100.00
20622;BME280;10470;42.670;23.354;2023-05-12T05:00:25;95107.91;;;8.73;100.00
20622;BME280;10470;42.670;23.354;2023-05-12T05:03:10;95108.00;;;8.69;100.00
20622;BME280;10470;42.670;23.354;2023-05-12T05:05:56;95111.31;;;8.77;100.00
20622;BME280;10470;42.670;23.354;2023-05-12T05:08:41;95104.88;;;8.55;100.00
20622;BME280;10470;42.670;23.354;2023-05-12T05:11:27;95104.03;;;8.58;100.00
20622;BME280;10470;42.670;23.354;2023-05-12T05:14:12;95106.72;;;8.58;100.00
20622;BME280;10470;42.670;23.354;2023-05-12T05:16:58;95103.22;;;8.73;100.00
20622;BME280;10470;42.670;23.354;2023-05-12T05:19:44;95114.72;;;8.65;100.00
20622;BME280;10470;42.670;23.354;2023-05-12T05:22:29;95087.03;;;8.70;100.00
20622;BME280;10470;42.670;23.354;2023-05-12T05:25:15;95114.47;;;9.05;100.00
20622;BME280;10470;42.670;23.354;2023-05-12T05:28:00;95119.69;;;8.83;100.00
20622;BME280;10470;42.670;23.354;2023-05-12T05:30:46;95124.03;;;8.80;100.00
20622;BME280;10470;42.670;23.354;2023-05-12T05:33:32;95119.19;;;8.88;100.00
20622;BME280;10470;42.670;23.354;2023-05-12T05:36:17;95114.47;;;9.05;100.00
20622;BME280;10470;42.670;23.354;2023-05-12T05:39:03;95117.34;;;9.14;100.00
20622;BME280;10470;42.670;23.354;2023-05-12T05:41:38;95112.31;;;8.83;100.00
20622;BME280;10470;42.670;23.354;2023-05-12T05:44:21;95132.09;;;9.13;100.00
20622;BME280;10470;42.670;23.354;2023-05-12T05:47:07;95119.94;;;8.88;100.00
20622;BME280;10470;42.670;23.354;2023-05-12T05:49:36;95132.09;;;9.13;100.00
20622;BME280;10470;42.670;23.354;2023-05-12T05:52:21;95130.00;;;9.04;100.00
20622;BME280;10470;42.670;23.354;2023-05-12T05:55:08;95130.28;;;9.23;100.00
20622;BME280;10470;42.670;23.354;2023-05-12T05:57:53;95128.59;;;9.29;100.00
20622;BME280;10470;42.670;23.354;2023-05-12T06:00:39;95141.69;;;9.17;100.00
20622;BME280;10470;42.670;23.354;2023-05-12T06:03:25;95135.03;;;9.06;100.00
20622;BME280;10470;42.670;23.354;2023-05-12T06:06:10;95136.94;;;9.22;100.00
20622;BME280;10470;42.670;23.354;2023-05-12T06:08:56;95136.13;;;9.08;100.00
20622;BME280;10470;42.670;23.354;2023-05-12T06:11:41;95138.72;;;9.41;100.00
20622;BME280;10470;42.670;23.354;2023-05-12T06:14:27;95143.19;;;9.35;100.00
20622;BME280;10470;42.670;23.354;2023-05-12T06:17:12;95141.56;;;9.37;100.00
20622;BME280;10470;42.670;23.354;2023-05-12T06:19:58;95145.72;;;9.42;100.00
20622;BME280;10470;42.670;23.354;2023-05-12T06:22:43;95149.53;;;9.45;100.00
20622;BME280;10470;42.670;23.354;2023-05-12T06:25:28;95156.09;;;9.60;100.00
20622;BME280;10470;42.670;23.354;2023-05-12T06:28:14;95151.25;;;9.51;100.00
20622;BME280;10470;42.670;23.354;2023-05-12T06:30:59;95146.72;;;9.61;100.00
20622;BME280;10470;42.670;23.354;2023-05-12T06:33:45;95162.28;;;9.60;100.00
20622;BME280;10470;42.670;23.354;2023-05-12T06:36:30;95164.47;;;9.66;100.00
20622;BME280;10470;42.670;23.354;2023-05-12T06:39:16;95164.00;;;9.54;100.00
20622;BME280;10470;42.670;23.354;2023-05-12T06:42:01;95175.38;;;9.66;100.00
20622;BME280;10470;42.670;23.354;2023-05-12T06:44:46;95172.59;;;9.53;100.00
20622;BME280;10470;42.670;23.354;2023-05-12T06:47:32;95176.22;;;9.62;100.00
20622;BME280;10470;42.670;23.354;2023-05-12T06:50:17;95178.44;;;9.68;100.00
20622;BME280;10470;42.670;23.354;2023-05-12T06:53:03;95170.25;;;9.68;100.00
20622;BME280;10470;42.670;23.354;2023-05-12T06:55:50;95175.47;;;9.75;100.00
20622;BME280;10470;42.670;23.354;2023-05-12T06:58:27;95186.47;;;9.71;100.00
20622;BME280;10470;42.670;23.354;2023-05-12T07:01:09;95180.28;;;9.71;100.00
20622;BME280;10470;42.670;23.354;2023-05-12T07:03:56;95175.16;;;9.73;100.00
20622;BME280;10470;42.670;23.354;2023-05-12T07:06:27;95179.53;;;9.83;100.00
20622;BME280;10470;42.670;23.354;2023-05-12T07:09:12;95177.91;;;9.98;100.00
20622;BME280;10470;42.670;23.354;2023-05-12T07:11:58;95173.34;;;9.95;100.00
20622;BME280;10470;42.670;23.354;2023-05-12T07:14:44;95175.63;;;9.84;100.00
20622;BME280;10470;42.670;23.354;2023-05-12T07:17:30;95181.84;;;9.97;100.00
20622;BME280;10470;42.670;23.354;2023-05-12T07:20:15;95182.03;;;9.77;100.00
20622;BME280;10470;42.670;23.354;2023-05-12T07:23:02;95190.59;;;10.18;100.00
20622;BME280;10470;42.670;23.354;2023-05-12T07:25:47;95189.34;;;9.93;100.00
20622;BME280;10470;42.670;23.354;2023-05-12T07:28:34;95191.47;;;10.15;100.00
20622;BME280;10470;42.670;23.354;2023-05-12T07:31:04;95190.16;;;10.06;100.00
20622;BME280;10470;42.670;23.354;2023-05-12T07:33:49;95184.16;;;9.99;100.00
20622;BME280;10470;42.670;23.354;2023-05-12T07:36:35;95198.84;;;10.01;100.00
20622;BME280;10470;42.670;23.354;2023-05-12T07:39:20;95200.59;;;10.08;100.00
20622;BME280;10470;42.670;23.354;2023-05-12T07:42:07;95191.25;;;10.09;100.00
20622;BME280;10470;42.670;23.354;2023-05-12T07:44:54;95195.16;;;10.21;100.00
20622;BME280;10470;42.670;23.354;2023-05-12T07:47:39;95210.25;;;10.38;100.00
20622;BME280;10470;42.670;23.354;2023-05-12T07:50:17;95199.56;;;10.57;100.00
20622;BME280;10470;42.670;23.354;2023-05-12T07:53:02;95189.63;;;10.37;100.00
20622;BME280;10470;42.670;23.354;2023-05-12T07:55:48;95191.59;;;10.62;100.00
20622;BME280;10470;42.670;23.354;2023-05-12T07:58:33;95193.56;;;10.62;100.00
20622;BME280;10470;42.670;23.354;2023-05-12T08:01:19;95194.72;;;10.74;100.00
20622;BME280;10470;42.670;23.354;2023-05-12T08:04:05;95192.81;;;11.09;100.00
20622;BME280;10470;42.670;23.354;2023-05-12T08:06:50;95194.19;;;11.26;100.00
20622;BME280;10470;42.670;23.354;2023-05-12T08:09:36;95195.31;;;11.16;100.00
20622;BME280;10470;42.670;23.354;2023-05-12T08:12:21;95192.97;;;11.27;100.00
20622;BME280;10470;42.670;23.354;2023-05-12T08:15:07;95197.13;;;11.54;100.00
20622;BME280;10470;42.670;23.354;2023-05-12T08:17:53;95202.06;;;11.24;100.00
20622;BME280;10470;42.670;23.354;2023-05-12T08:20:38;95184.75;;;11.18;100.00
20622;BME280;10470;42.670;23.354;2023-05-12T08:23:24;95206.78;;;11.46;100.00
20622;BME280;10470;42.670;23.354;2023-05-12T08:26:10;95197.09;;;11.45;100.00
20622;BME280;10470;42.670;23.354;2023-05-12T08:28:55;95203.44;;;11.42;100.00
20622;BME280;10470;42.670;23.354;2023-05-12T08:31:41;95210.41;;;11.43;100.00
20622;BME280;10470;42.670;23.354;2023-05-12T08:34:26;95209.59;;;11.55;100.00
20622;BME280;10470;42.670;23.354;2023-05-12T08:37:03;95212.50;;;11.61;100.00
20622;BME280;10470;42.670;23.354;2023-05-12T08:39:50;95210.00;;;11.88;100.00
20622;BME280;10470;42.670;23.354;2023-05-12T08:42:41;95211.94;;;11.66;100.00
20622;BME280;10470;42.670;23.354;2023-05-12T08:45:28;95202.38;;;12.05;100.00
20622;BME280;10470;42.670;23.354;2023-05-12T08:48:14;95208.81;;;12.20;100.00
20622;BME280;10470;42.670;23.354;2023-05-12T08:51:02;95197.66;;;11.84;100.00
20622;BME280;10470;42.670;23.354;2023-05-12T08:53:52;95205.81;;;11.96;100.00
20622;BME280;10470;42.670;23.354;2023-05-12T08:56:39;95206.81;;;12.43;100.00
20622;BME280;10470;42.670;23.354;2023-05-12T08:59:26;95210.22;;;12.25;100.00
20622;BME280;10470;42.670;23.354;2023-05-12T09:02:12;95208.59;;;12.06;100.00
20622;BME280;10470;42.670;23.354;2023-05-12T09:04:58;95211.00;;;11.81;100.00
20622;BME280;10470;42.670;23.354;2023-05-12T09:07:44;95186.66;;;12.18;100.00
20622;BME280;10470;42.670;23.354;2023-05-12T09:10:29;95202.84;;;12.35;100.00
20622;BME280;10470;42.670;23.354;2023-05-12T09:16:01;95208.72;;;12.02;100.00
20622;BME280;10470;42.670;23.354;2023-05-12T09:18:50;95197.53;;;12.09;100.00
20622;BME280;10470;42.670;23.354;2023-05-12T09:21:36;95197.56;;;12.50;100.00
20622;BME280;10470;42.670;23.354;2023-05-12T09:24:35;95195.06;;;12.64;100.00
20622;BME280;10470;42.670;23.354;2023-05-12T09:27:26;95195.06;;;12.64;100.00
20622;BME280;10470;42.670;23.354;2023-05-12T09:30:12;95195.19;;;12.61;100.00
20622;BME280;10470;42.670;23.354;2023-05-12T09:33:05;95188.44;;;12.43;100.00
20622;BME280;10470;42.670;23.354;2023-05-12T09:35:51;95176.38;;;12.72;100.00
20622;BME280;10470;42.670;23.354;2023-05-12T09:38:37;95171.09;;;12.37;100.00
20622;BME280;10470;42.670;23.354;2023-05-12T09:41:22;95186.31;;;12.48;100.00
20622;BME280;10470;42.670;23.354;2023-05-12T09:44:09;95192.09;;;12.90;100.00
20622;BME280;10470;42.670;23.354;2023-05-12T09:47:05;95191.00;;;12.87;100.00
20622;BME280;10470;42.670;23.354;2023-05-12T09:49:51;95199.81;;;12.82;100.00
20622;BME280;10470;42.670;23.354;2023-05-12T09:52:38;95199.66;;;12.77;100.00
20622;BME280;10470;42.670;23.354;2023-05-12T09:55:23;95193.81;;;12.65;100.00
20622;BME280;10470;42.670;23.354;2023-05-12T09:58:09;95195.75;;;12.96;100.00
20622;BME280;10470;42.670;23.354;2023-05-12T10:00:55;95197.28;;;13.06;100.00
20622;BME280;10470;42.670;23.354;2023-05-12T10:03:42;95190.53;;;12.80;100.00
20622;BME280;10470;42.670;23.354;2023-05-12T10:06:30;95188.72;;;12.86;100.00
20622;BME280;10470;42.670;23.354;2023-05-12T10:09:24;95186.59;;;12.81;100.00
20622;BME280;10470;42.670;23.354;2023-05-12T10:12:13;95186.16;;;12.82;100.00
20622;BME280;10470;42.670;23.354;2023-05-12T10:14:59;95183.47;;;13.19;100.00
20622;BME280;10470;42.670;23.354;2023-05-12T10:17:29;95185.47;;;13.74;100.00
20622;BME280;10470;42.670;23.354;2023-05-12T10:20:16;95183.50;;;13.65;100.00
20622;BME280;10470;42.670;23.354;2023-05-12T10:23:02;95186.56;;;13.58;100.00
20622;BME280;10470;42.670;23.354;2023-05-12T10:25:48;95194.44;;;13.74;100.00
20622;BME280;10470;42.670;23.354;2023-05-12T10:28:34;95188.06;;;13.31;100.00
20622;BME280;10470;42.670;23.354;2023-05-12T10:31:19;95177.25;;;13.83;100.00
20622;BME280;10470;42.670;23.354;2023-05-12T10:34:06;95183.00;;;13.85;100.00
20622;BME280;10470;42.670;23.354;2023-05-12T10:36:52;95183.75;;;14.04;100.00
20622;BME280;10470;42.670;23.354;2023-05-12T10:39:50;95175.72;;;14.43;100.00
20622;BME280;10470;42.670;23.354;2023-05-12T10:42:40;95177.59;;;14.28;100.00
20622;BME280;10470;42.670;23.354;2023-05-12T10:45:17;95180.34;;;14.18;100.00
20622;BME280;10470;42.670;23.354;2023-05-12T10:48:06;95163.53;;;14.44;100.00
20622;BME280;10470;42.670;23.354;2023-05-12T10:50:53;95167.94;;;14.51;100.00
20622;BME280;10470;42.670;23.354;2023-05-12T10:53:38;95158.28;;;14.89;100.00
20622;BME280;10470;42.670;23.354;2023-05-12T10:56:26;95168.69;;;15.33;100.00
20622;BME280;10470;42.670;23.354;2023-05-12T10:59:25;95172.88;;;15.43;100.00
20622;BME280;10470;42.670;23.354;2023-05-12T11:02:22;95169.94;;;15.07;100.00
20622;BME280;10470;42.670;23.354;2023-05-12T11:05:18;95178.63;;;14.82;100.00
20622;BME280;10470;42.670;23.354;2023-05-12T11:08:04;95179.72;;;14.99;100.00
20622;BME280;10470;42.670;23.354;2023-05-12T11:10:49;95176.81;;;15.03;100.00
20622;BME280;10470;42.670;23.354;2023-05-12T11:13:35;95178.03;;;15.02;100.00
20622;BME280;10470;42.670;23.354;2023-05-12T11:16:05;95175.13;;;15.05;100.00
20622;BME280;10470;42.670;23.354;2023-05-12T11:19:03;95184.97;;;14.55;100.00
20622;BME280;10470;42.670;23.354;2023-05-12T11:21:49;95179.81;;;14.57;100.00
20622;BME280;10470;42.670;23.354;2023-05-12T11:24:36;95181.03;;;14.56;100.00
20622;BME280;10470;42.670;23.354;2023-05-12T11:27:22;95167.63;;;14.58;100.00
20622;BME280;10470;42.670;23.354;2023-05-12T11:30:08;95189.31;;;15.04;100.00
20622;BME280;10470;42.670;23.354;2023-05-12T11:32:59;95193.69;;;15.11;100.00
20622;BME280;10470;42.670;23.354;2023-05-12T11:35:45;95192.81;;;15.04;100.00
20622;BME280;10470;42.670;23.354;2023-05-12T11:38:30;95184.09;;;15.30;100.00
20622;BME280;10470;42.670;23.354;2023-05-12T11:41:25;95177.47;;;14.98;100.00
20622;BME280;10470;42.670;23.354;2023-05-12T11:44:18;95196.84;;;14.52;100.00
20622;BME280;10470;42.670;23.354;2023-05-12T11:47:14;95191.25;;;14.37;100.00
20622;BME280;10470;42.670;23.354;2023-05-12T11:50:02;95193.00;;;14.25;100.00
20622;BME280;10470;42.670;23.354;2023-05-12T11:52:47;95177.53;;;14.46;100.00
20622;BME280;10470;42.670;23.354;2023-05-12T11:55:33;95176.50;;;14.34;100.00
20622;BME280;10470;42.670;23.354;2023-05-12T11:58:26;95183.78;;;14.47;100.00
20622;BME280;10470;42.670;23.354;2023-05-12T12:01:09;95185.31;;;14.48;100.00
20622;BME280;10470;42.670;23.354;2023-05-12T12:03:58;95187.34;;;14.29;100.00
20622;BME280;10470;42.670;23.354;2023-05-12T12:06:44;95189.50;;;14.67;100.00
20622;BME280;10470;42.670;23.354;2023-05-12T12:09:38;95173.09;;;14.49;100.00
20622;BME280;10470;42.670;23.354;2023-05-12T12:12:26;95183.31;;;14.48;100.00
20622;BME280;10470;42.670;23.354;2023-05-12T12:15:11;95193.69;;;14.53;100.00
20622;BME280;10470;42.670;23.354;2023-05-12T12:17:57;95192.75;;;14.47;100.00
20622;BME280;10470;42.670;23.354;2023-05-12T12:20:42;95199.28;;;14.50;100.00
20622;BME280;10470;42.670;23.354;2023-05-12T12:23:28;95193.94;;;14.64;100.00
20622;BME280;10470;42.670;23.354;2023-05-12T12:26:14;95188.63;;;14.61;100.00
20622;BME280;10470;42.670;23.354;2023-05-12T12:29:00;95191.81;;;14.69;100.00
20622;BME280;10470;42.670;23.354;2023-05-12T12:31:46;95201.16;;;14.86;100.00
20622;BME280;10470;42.670;23.354;2023-05-12T12:34:31;95196.44;;;14.53;100.00
20622;BME280;10470;42.670;23.354;2023-05-12T12:37:17;95186.03;;;14.57;100.00
20622;BME280;10470;42.670;23.354;2023-05-12T12:40:03;95188.56;;;14.70;100.00
20622;BME280;10470;42.670;23.354;2023-05-12T12:42:52;95196.78;;;14.79;100.00
20622;BME280;10470;42.670;23.354;2023-05-12T12:45:37;95195.06;;;14.58;100.00
20622;BME280;10470;42.670;23.354;2023-05-12T12:48:23;95194.53;;;14.69;100.00
20622;BME280;10470;42.670;23.354;2023-05-12T12:51:08;95184.38;;;14.51;100.00
20622;BME280;10470;42.670;23.354;2023-05-12T12:53:54;95194.56;;;14.59;100.00
20622;BME280;10470;42.670;23.354;2023-05-12T12:56:39;95195.16;;;14.12;100.00
20622;BME280;10470;42.670;23.354;2023-05-12T12:59:25;95179.47;;;14.64;100.00
20622;BME280;10470;42.670;23.354;2023-05-12T13:02:11;95182.72;;;14.53;100.00
20622;BME280;10470;42.670;23.354;2023-05-12T13:04:56;95186.78;;;14.91;100.00
20622;BME280;10470;42.670;23.354;2023-05-12T13:07:42;95178.91;;;14.84;100.00
20622;BME280;10470;42.670;23.354;2023-05-12T13:10:27;95183.19;;;14.85;100.00
20622;BME280;10470;42.670;23.354;2023-05-12T13:13:13;95177.72;;;14.76;100.00
20622;BME280;10470;42.670;23.354;2023-05-12T13:15:59;95174.75;;;14.89;100.00
20622;BME280;10470;42.670;23.354;2023-05-12T13:18:44;95173.78;;;14.77;100.00
20622;BME280;10470;42.670;23.354;2023-05-12T13:21:30;95165.69;;;14.40;100.00
20622;BME280;10470;42.670;23.354;2023-05-12T13:24:15;95162.44;;;14.51;100.00
20622;BME280;10470;42.670;23.354;2023-05-12T13:26:46;95164.94;;;14.73;100.00
20622;BME280;10470;42.670;23.354;2023-05-12T13:29:32;95146.78;;;14.99;100.00
20622;BME280;10470;42.670;23.354;2023-05-12T13:32:17;95160.34;;;15.03;100.00
20622;BME280;10470;42.670;23.354;2023-05-12T13:35:04;95147.50;;;14.85;100.00
20622;BME280;10470;42.670;23.354;2023-05-12T13:37:50;95151.53;;;14.99;100.00
20622;BME280;10470;42.670;23.354;2023-05-12T13:40:36;95140.94;;;14.92;100.00
20622;BME280;10470;42.670;23.354;2023-05-12T13:43:21;95140.41;;;15.17;100.00
20622;BME280;10470;42.670;23.354;2023-05-12T13:46:07;95142.66;;;14.80;100.00
20622;BME280;10470;42.670;23.354;2023-05-12T13:48:36;95141.50;;;14.96;100.00
20622;BME280;10470;42.670;23.354;2023-05-12T13:51:22;95157.56;;;14.55;100.00
20622;BME280;10470;42.670;23.354;2023-05-12T13:54:07;95156.97;;;14.84;100.00
20622;BME280;10470;42.670;23.354;2023-05-12T13:56:53;95146.75;;;14.84;100.00
20622;BME280;10470;42.670;23.354;2023-05-12T13:59:38;95161.03;;;14.89;100.00
20622;BME280;10470;42.670;23.354;2023-05-12T14:02:23;95161.81;;;14.89;100.00
20622;BME280;10470;42.670;23.354;2023-05-12T14:05:05;95153.16;;;15.29;100.00
20622;BME280;10470;42.670;23.354;2023-05-12T14:07:50;95150.59;;;15.02;100.00
20622;BME280;10470;42.670;23.354;2023-05-12T14:10:35;95158.97;;;15.07;100.00
20622;BME280;10470;42.670;23.354;2023-05-12T14:13:21;95150.09;;;15.13;100.00
20622;BME280;10470;42.670;23.354;2023-05-12T14:16:08;95166.63;;;15.42;100.00
20622;BME280;10470;42.670;23.354;2023-05-12T14:18:54;95155.50;;;15.61;100.00
20622;BME280;10470;42.670;23.354;2023-05-12T14:21:39;95154.56;;;16.53;97.06